createdAt,value
2018-02-22T00:00:25.214Z,24.02
2018-02-22T00:01:25.180Z,24.21
2018-02-22T00:02:25.161Z,24.40
2018-02-22T00:03:25.124Z,24.11
2018-02-22T00:04:25.069Z,24.30
2018-02-22T00:05:25.033Z,24.30
2018-02-22T00:06:25.002Z,24.11
2018-02-22T00:07:25.818Z,24.21
2018-02-22T00:08:24.933Z,24.21
2018-02-22T00:09:24.887Z,24.30
2018-02-22T00:10:24.851Z,24.11
2018-02-22T00:11:24.818Z,24.30
2018-02-22T00:12:24.809Z,24.30
2018-02-22T00:13:24.743Z,24.30
2018-02-22T00:14:24.709Z,24.30
2018-02-22T00:15:24.670Z,23.92
2018-02-22T00:16:24.640Z,23.92
2018-02-22T00:17:24.598Z,23.72
2018-02-22T00:18:24.591Z,24.11
2018-02-22T00:19:24.526Z,24.21
2018-02-22T00:20:24.492Z,24.40
2018-02-22T00:21:24.452Z,24.11
2018-02-22T00:22:24.415Z,24.30
2018-02-22T00:23:24.404Z,24.02
2018-02-22T00:24:24.368Z,23.92
2018-02-22T00:25:24.312Z,23.92
2018-02-22T00:26:24.274Z,23.92
2018-02-22T00:27:24.240Z,23.82
2018-02-22T00:28:24.202Z,23.72
2018-02-22T00:29:24.193Z,23.24
2018-02-22T00:30:24.133Z,23.63
2018-02-22T00:31:24.096Z,23.63
2018-02-22T00:32:24.057Z,24.02
2018-02-22T00:33:24.018Z,23.92
2018-02-22T00:34:23.980Z,24.40
2018-02-22T00:35:23.970Z,24.50
2018-02-22T00:36:23.914Z,24.30
2018-02-22T00:37:23.878Z,24.11
2018-02-22T00:38:23.837Z,24.30
2018-02-22T00:39:23.804Z,23.82
2018-02-22T00:40:23.799Z,23.72
2018-02-22T00:41:23.740Z,24.21
2018-02-22T00:42:23.698Z,23.82
2018-02-22T00:43:23.677Z,23.44
2018-02-22T00:44:23.626Z,24.21
2018-02-22T00:45:23.592Z,23.92
2018-02-22T00:46:23.568Z,23.72
2018-02-22T00:47:23.511Z,23.82
2018-02-22T00:48:23.484Z,23.54
2018-02-22T00:49:23.442Z,23.63
2018-02-22T00:50:23.407Z,23.34
2018-02-22T00:51:23.402Z,23.54
2018-02-22T00:52:23.334Z,23.34
2018-02-22T00:53:23.294Z,23.34
2018-02-22T00:54:23.282Z,23.82
2018-02-22T00:55:23.227Z,23.82
2018-02-22T00:56:23.192Z,23.82
2018-02-22T00:57:23.179Z,24.11
2018-02-22T00:58:23.115Z,24.11
2018-02-22T00:59:23.080Z,23.82
2018-02-22T01:00:23.041Z,23.63
2018-02-22T01:01:23.012Z,23.54
2018-02-22T01:02:22.995Z,23.92
2018-02-22T01:03:22.933Z,23.24
2018-02-22T01:04:22.902Z,24.21
2018-02-22T01:05:22.860Z,23.82
2018-02-22T01:06:22.830Z,23.72
2018-02-22T01:07:22.790Z,23.63
2018-02-22T01:08:22.778Z,23.63
2018-02-22T01:09:22.717Z,23.44
2018-02-22T01:10:22.684Z,23.63
2018-02-22T01:11:22.643Z,23.72
2018-02-22T01:12:22.608Z,23.34
2018-02-22T01:13:22.596Z,23.34
2018-02-22T01:14:22.539Z,23.44
2018-02-22T01:15:22.497Z,23.63
2018-02-22T01:16:22.464Z,23.44
2018-02-22T01:17:22.430Z,23.63
2018-02-22T01:18:22.429Z,23.44
2018-02-22T01:19:22.356Z,23.63
2018-02-22T01:20:22.321Z,23.34
2018-02-22T01:21:22.306Z,23.63
2018-02-22T01:22:22.249Z,23.34
2018-02-22T01:23:22.208Z,23.44
2018-02-22T01:24:22.198Z,23.63
2018-02-22T01:25:22.138Z,23.63
2018-02-22T01:26:22.104Z,23.34
2018-02-22T01:27:22.065Z,23.34
2018-02-22T01:28:22.028Z,23.54
2018-02-22T01:29:22.020Z,23.54
2018-02-22T01:30:21.956Z,23.54
2018-02-22T01:31:21.921Z,23.54
2018-02-22T01:32:21.887Z,23.63
2018-02-22T01:33:21.858Z,23.34
2018-02-22T01:34:21.816Z,23.63
2018-02-22T01:35:21.798Z,23.44
2018-02-22T01:36:21.743Z,23.34
2018-02-22T01:37:21.705Z,23.34
2018-02-22T01:38:21.670Z,23.34
2018-02-22T01:39:21.632Z,23.44
2018-02-22T01:40:21.628Z,23.44
2018-02-22T01:41:21.564Z,23.24
2018-02-22T01:42:21.545Z,23.44
2018-02-22T01:43:21.489Z,23.44
2018-02-22T01:44:21.450Z,23.82
2018-02-22T01:45:21.412Z,23.44
2018-02-22T01:46:21.407Z,23.54
2018-02-22T01:47:21.340Z,23.44
2018-02-22T01:48:21.308Z,23.54
2018-02-22T01:49:21.275Z,23.44
2018-02-22T01:50:21.236Z,23.24
2018-02-22T01:51:21.237Z,23.34
2018-02-22T01:52:21.166Z,23.34
2018-02-22T01:53:21.150Z,23.34
2018-02-22T01:54:21.088Z,22.96
2018-02-22T01:55:21.053Z,23.82
2018-02-22T01:56:21.020Z,23.44
2018-02-22T01:57:21.002Z,23.44
2018-02-22T01:58:20.949Z,23.44
2018-02-22T01:59:20.912Z,23.15
2018-02-22T02:00:20.874Z,23.05
2018-02-22T02:01:20.841Z,22.96
2018-02-22T02:02:20.834Z,23.44
2018-02-22T02:03:20.793Z,23.34
2018-02-22T02:04:20.726Z,23.72
2018-02-22T02:05:20.690Z,23.54
2018-02-22T02:06:20.659Z,23.54
2018-02-22T02:07:20.622Z,23.24
2018-02-22T02:08:20.601Z,23.63
2018-02-22T02:09:20.551Z,23.05
2018-02-22T02:10:20.509Z,22.96
2018-02-22T02:11:20.479Z,23.54
2018-02-22T02:12:20.470Z,23.54
2018-02-22T02:13:20.408Z,23.15
2018-02-22T02:14:20.368Z,22.96
2018-02-22T02:15:20.330Z,23.24
2018-02-22T02:16:20.297Z,23.34
2018-02-22T02:17:20.259Z,23.15
2018-02-22T02:18:20.243Z,22.86
2018-02-22T02:19:20.187Z,23.44
2018-02-22T02:20:20.153Z,23.24
2018-02-22T02:21:20.116Z,23.34
2018-02-22T02:22:20.074Z,23.44
2018-02-22T02:23:20.043Z,23.34
2018-02-22T02:24:20.028Z,23.54
2018-02-22T02:25:19.969Z,23.24
2018-02-22T02:26:19.932Z,23.05
2018-02-22T02:27:19.896Z,23.82
2018-02-22T02:28:19.864Z,23.34
2018-02-22T02:29:19.849Z,23.33
2018-02-22T02:30:19.794Z,23.15
2018-02-22T02:31:19.756Z,23.04
2018-02-22T02:32:19.721Z,23.34
2018-02-22T02:33:19.680Z,23.24
2018-02-22T02:34:19.645Z,23.44
2018-02-22T02:35:19.637Z,23.54
2018-02-22T02:36:19.566Z,23.34
2018-02-22T02:37:19.534Z,23.72
2018-02-22T02:38:19.503Z,23.05
2018-02-22T02:39:19.467Z,23.54
2018-02-22T02:40:19.423Z,23.34
2018-02-22T02:41:19.406Z,23.34
2018-02-22T02:42:19.358Z,23.44
2018-02-22T02:43:19.315Z,23.34
2018-02-22T02:44:19.287Z,23.34
2018-02-22T02:45:19.248Z,23.24
2018-02-22T02:46:19.233Z,23.44
2018-02-22T02:47:19.174Z,23.44
2018-02-22T02:48:19.137Z,23.14
2018-02-22T02:49:19.102Z,23.05
2018-02-22T02:50:19.060Z,22.86
2018-02-22T02:51:19.059Z,22.86
2018-02-22T02:52:18.992Z,23.05
2018-02-22T02:53:19.001Z,23.24
2018-02-22T02:54:18.919Z,23.15
2018-02-22T02:55:18.883Z,23.05
2018-02-22T02:56:18.843Z,23.05
2018-02-22T02:57:18.845Z,23.15
2018-02-22T02:58:18.792Z,23.24
2018-02-22T02:59:18.741Z,22.86
2018-02-22T03:00:18.703Z,23.24
2018-02-22T03:01:18.665Z,23.34
2018-02-22T03:02:18.628Z,23.05
2018-02-22T03:03:18.616Z,23.44
2018-02-22T03:04:18.560Z,23.15
2018-02-22T03:05:18.522Z,23.15
2018-02-22T03:06:18.480Z,23.14
2018-02-22T03:07:18.449Z,23.14
2018-02-22T03:08:18.435Z,23.05
2018-02-22T03:09:18.377Z,23.63
2018-02-22T03:10:18.342Z,23.15
2018-02-22T03:11:18.299Z,23.15
2018-02-22T03:12:18.263Z,22.85
2018-02-22T03:13:18.251Z,23.15
2018-02-22T03:14:18.191Z,23.34
2018-02-22T03:15:18.153Z,23.24
2018-02-22T03:16:18.123Z,23.24
2018-02-22T03:17:18.085Z,23.04
2018-02-22T03:18:18.044Z,23.24
2018-02-22T03:19:18.042Z,22.85
2018-02-22T03:20:17.976Z,23.24
2018-02-22T03:21:17.939Z,22.85
2018-02-22T03:22:17.904Z,23.34
2018-02-22T03:23:17.892Z,23.34
2018-02-22T03:24:17.831Z,23.34
2018-02-22T03:25:17.817Z,23.43
2018-02-22T03:26:17.754Z,23.54
2018-02-22T03:27:17.725Z,23.04
2018-02-22T03:28:17.685Z,23.04
2018-02-22T03:29:17.650Z,23.14
2018-02-22T03:30:17.634Z,23.24
2018-02-22T03:31:17.580Z,23.15
2018-02-22T03:32:17.540Z,23.72
2018-02-22T03:33:17.506Z,23.04
2018-02-22T03:34:17.468Z,23.24
2018-02-22T03:35:17.651Z,23.14
2018-02-22T03:36:17.393Z,23.05
2018-02-22T03:37:17.363Z,23.24
2018-02-22T03:38:17.322Z,23.43
2018-02-22T03:39:17.286Z,23.33
2018-02-22T03:40:17.248Z,23.24
2018-02-22T03:41:17.242Z,23.24
2018-02-22T03:42:17.174Z,23.14
2018-02-22T03:43:17.168Z,23.04
2018-02-22T03:44:17.104Z,23.15
2018-02-22T03:45:17.069Z,23.24
2018-02-22T03:46:17.028Z,22.85
2018-02-22T03:47:17.017Z,23.24
2018-02-22T03:48:16.962Z,23.24
2018-02-22T03:49:16.920Z,22.85
2018-02-22T03:50:16.884Z,23.05
2018-02-22T03:51:16.853Z,23.04
2018-02-22T03:52:16.836Z,23.04
2018-02-22T03:53:16.775Z,23.04
2018-02-22T03:54:16.737Z,23.24
2018-02-22T03:55:16.702Z,23.14
2018-02-22T03:56:16.668Z,23.43
2018-02-22T03:57:16.670Z,23.62
2018-02-22T03:58:16.614Z,23.33
2018-02-22T03:59:16.559Z,23.04
2018-02-22T04:00:16.518Z,23.24
2018-02-22T04:01:16.488Z,23.24
2018-02-22T04:02:16.447Z,22.94
2018-02-22T04:03:16.444Z,23.44
2018-02-22T04:04:16.374Z,23.24
2018-02-22T04:05:16.338Z,23.33
2018-02-22T04:06:16.308Z,23.14
2018-02-22T04:07:16.264Z,23.52
2018-02-22T04:08:16.263Z,23.44
2018-02-22T04:09:16.193Z,22.94
2018-02-22T04:10:16.165Z,23.14
2018-02-22T04:11:16.124Z,23.14
2018-02-22T04:12:16.088Z,23.24
2018-02-22T04:13:16.071Z,23.24
2018-02-22T04:14:16.051Z,23.04
2018-02-22T04:15:15.980Z,23.24
2018-02-22T04:16:15.941Z,23.81
2018-02-22T04:17:15.908Z,22.94
2018-02-22T04:18:15.926Z,23.24
2018-02-22T04:19:15.828Z,23.33
2018-02-22T04:20:15.832Z,23.33
2018-02-22T04:21:16.420Z,23.33
2018-02-22T04:22:15.719Z,23.05
2018-02-22T04:23:15.709Z,23.05
2018-02-22T04:24:15.655Z,23.33
2018-02-22T04:25:15.614Z,23.14
2018-02-22T04:26:15.598Z,23.24
2018-02-22T04:27:15.545Z,23.24
2018-02-22T04:28:15.510Z,23.33
2018-02-22T04:29:15.472Z,22.76
2018-02-22T04:30:15.438Z,23.33
2018-02-22T04:31:15.425Z,23.24
2018-02-22T04:32:15.359Z,22.85
2018-02-22T04:33:15.328Z,23.04
2018-02-22T04:34:15.290Z,23.04
2018-02-22T04:35:15.254Z,22.86
2018-02-22T04:36:15.213Z,23.24
2018-02-22T04:37:15.205Z,23.34
2018-02-22T04:38:15.140Z,22.86
2018-02-22T04:39:15.105Z,23.14
2018-02-22T04:40:15.068Z,23.14
2018-02-22T04:41:15.035Z,23.24
2018-02-22T04:42:15.028Z,23.24
2018-02-22T04:43:14.962Z,23.24
2018-02-22T04:44:14.923Z,23.14
2018-02-22T04:45:14.888Z,22.85
2018-02-22T04:46:14.850Z,22.94
2018-02-22T04:47:14.816Z,23.24
2018-02-22T04:48:14.801Z,23.24
2018-02-22T04:49:14.747Z,23.33
2018-02-22T04:50:14.708Z,23.24
2018-02-22T04:51:14.671Z,23.24
2018-02-22T04:52:14.637Z,23.14
2018-02-22T04:53:14.630Z,22.85
2018-02-22T04:54:14.560Z,23.04
2018-02-22T04:55:14.530Z,23.04
2018-02-22T04:56:14.489Z,23.24
2018-02-22T04:57:14.490Z,23.15
2018-02-22T04:58:14.422Z,23.05
2018-02-22T04:59:14.382Z,23.33
2018-02-22T05:00:14.342Z,23.24
2018-02-22T05:01:14.303Z,23.33
2018-02-22T05:02:14.272Z,23.14
2018-02-22T05:03:14.255Z,23.14
2018-02-22T05:04:14.197Z,23.24
2018-02-22T05:05:14.183Z,22.76
2018-02-22T05:06:14.123Z,23.24
2018-02-22T05:07:14.087Z,23.24
2018-02-22T05:08:14.084Z,23.24
2018-02-22T05:09:14.019Z,23.04
2018-02-22T05:10:13.981Z,23.24
2018-02-22T05:11:13.941Z,22.85
2018-02-22T05:12:13.906Z,23.24
2018-02-22T05:13:13.894Z,23.24
2018-02-22T05:14:13.876Z,22.85
2018-02-22T05:15:13.795Z,22.85
2018-02-22T05:16:13.768Z,22.75
2018-02-22T05:17:13.743Z,22.94
2018-02-22T05:18:13.753Z,23.33
2018-02-22T05:19:13.656Z,22.96
2018-02-22T05:20:13.619Z,22.94
2018-02-22T05:21:13.580Z,23.14
2018-02-22T05:22:13.573Z,23.14
2018-02-22T05:23:13.509Z,23.24
2018-02-22T05:24:13.475Z,23.24
2018-02-22T05:25:13.435Z,23.14
2018-02-22T05:26:13.399Z,23.24
2018-02-22T05:27:13.362Z,23.05
2018-02-22T05:28:13.367Z,23.14
2018-02-22T05:29:13.316Z,23.24
2018-02-22T05:30:13.255Z,22.86
2018-02-22T05:31:13.221Z,23.05
2018-02-22T05:32:13.191Z,22.86
2018-02-22T05:33:13.149Z,23.34
2018-02-22T05:34:13.164Z,22.96
2018-02-22T05:35:13.071Z,23.24
2018-02-22T05:36:13.037Z,22.94
2018-02-22T05:37:13.002Z,22.96
2018-02-22T05:38:12.962Z,23.04
2018-02-22T05:39:12.955Z,23.24
2018-02-22T05:40:12.889Z,23.24
2018-02-22T05:41:12.859Z,23.05
2018-02-22T05:42:12.824Z,22.96
2018-02-22T05:43:12.786Z,22.86
2018-02-22T05:44:12.775Z,23.15
2018-02-22T05:45:12.706Z,22.96
2018-02-22T05:46:12.672Z,22.85
2018-02-22T05:47:12.634Z,23.44
2018-02-22T05:48:12.603Z,23.15
2018-02-22T05:49:12.568Z,23.15
2018-02-22T05:50:12.556Z,23.24
2018-02-22T05:51:12.493Z,22.96
2018-02-22T05:52:12.457Z,23.04
2018-02-22T05:53:12.449Z,22.66
2018-02-22T05:54:12.382Z,22.56
2018-02-22T05:55:12.372Z,22.28
2018-02-22T05:56:12.327Z,22.08
2018-02-22T05:57:12.278Z,22.17
2018-02-22T05:58:12.235Z,22.28
2018-02-22T05:59:12.201Z,22.27
2018-02-22T06:00:12.169Z,22.56
2018-02-22T06:01:12.157Z,22.46
2018-02-22T06:02:12.100Z,22.27
2018-02-22T06:03:12.054Z,22.46
2018-02-22T06:04:12.021Z,22.86
2018-02-22T06:05:11.988Z,22.66
2018-02-22T06:06:11.978Z,22.94
2018-02-22T06:07:11.908Z,22.85
2018-02-22T06:08:11.881Z,22.85
2018-02-22T06:09:11.840Z,22.75
2018-02-22T06:10:11.830Z,22.75
2018-02-22T06:11:11.762Z,22.94
2018-02-22T06:12:11.728Z,22.85
2018-02-22T06:13:11.693Z,22.75
2018-02-22T06:14:11.656Z,22.75
2018-02-22T06:15:11.649Z,22.85
2018-02-22T06:16:11.586Z,22.75
2018-02-22T06:17:11.552Z,22.75
2018-02-22T06:18:11.510Z,22.85
2018-02-22T06:19:11.477Z,22.86
2018-02-22T06:20:11.442Z,23.24
2018-02-22T06:21:11.426Z,22.85
2018-02-22T06:22:11.369Z,23.24
2018-02-22T06:23:11.342Z,22.76
2018-02-22T06:24:11.300Z,23.04
2018-02-22T06:25:11.261Z,23.24
2018-02-22T06:26:11.256Z,23.04
2018-02-22T06:27:11.182Z,23.15
2018-02-22T06:28:11.149Z,22.96
2018-02-22T06:29:11.112Z,23.04
2018-02-22T06:30:11.079Z,23.05
2018-02-22T06:31:11.062Z,23.24
2018-02-22T06:32:11.043Z,23.04
2018-02-22T06:33:10.968Z,23.34
2018-02-22T06:34:10.929Z,23.24
2018-02-22T06:35:10.897Z,23.34
2018-02-22T06:36:10.879Z,22.94
2018-02-22T06:37:10.819Z,23.05
2018-02-22T06:38:10.818Z,23.05
2018-02-22T06:39:10.746Z,22.96
2018-02-22T06:40:10.718Z,23.14
2018-02-22T06:41:10.701Z,22.86
2018-02-22T06:42:10.641Z,23.04
2018-02-22T06:43:10.645Z,23.14
2018-02-22T06:44:10.568Z,22.94
2018-02-22T06:45:10.528Z,23.24
2018-02-22T06:46:10.492Z,23.14
2018-02-22T06:47:10.458Z,23.33
2018-02-22T06:48:10.426Z,23.04
2018-02-22T06:49:10.413Z,23.05
2018-02-22T06:50:10.355Z,22.86
2018-02-22T06:51:10.344Z,23.05
2018-02-22T06:52:10.276Z,23.24
2018-02-22T06:53:10.240Z,23.15
2018-02-22T06:54:10.205Z,23.14
2018-02-22T06:55:10.189Z,23.15
2018-02-22T06:56:10.132Z,23.05
2018-02-22T06:57:10.096Z,23.24
2018-02-22T06:58:10.055Z,23.24
2018-02-22T06:59:10.027Z,23.24
2018-02-22T07:00:10.011Z,23.44
2018-02-22T07:01:09.949Z,23.15
2018-02-22T07:02:09.909Z,22.96
2018-02-22T07:03:09.884Z,22.85
2018-02-22T07:04:09.837Z,23.05
2018-02-22T07:05:09.830Z,23.24
2018-02-22T07:06:09.764Z,23.54
2018-02-22T07:07:09.728Z,23.54
2018-02-22T07:08:09.696Z,23.34
2018-02-22T07:09:09.662Z,22.96
2018-02-22T07:10:09.621Z,23.15
2018-02-22T07:11:09.617Z,23.34
2018-02-22T07:12:09.554Z,23.15
2018-02-22T07:13:09.515Z,22.85
2018-02-22T07:14:09.484Z,23.52
2018-02-22T07:15:09.445Z,22.96
2018-02-22T07:16:09.407Z,23.24
2018-02-22T07:17:09.394Z,22.96
2018-02-22T07:18:09.336Z,23.05
2018-02-22T07:19:09.293Z,23.54
2018-02-22T07:20:09.260Z,23.44
2018-02-22T07:21:09.222Z,23.24
2018-02-22T07:22:09.520Z,23.05
2018-02-22T07:23:16.652Z,23.63
2018-02-22T07:24:09.109Z,23.54
2018-02-22T07:25:09.079Z,23.34
2018-02-22T07:26:09.041Z,23.54
2018-02-22T07:27:09.026Z,23.63
2018-02-22T07:28:08.980Z,23.63
2018-02-22T07:29:08.938Z,23.44
2018-02-22T07:30:08.896Z,23.44
2018-02-22T07:31:08.860Z,24.02
2018-02-22T07:32:08.848Z,23.92
2018-02-22T07:33:08.784Z,23.44
2018-02-22T07:34:08.770Z,23.44
2018-02-22T07:35:08.717Z,23.44
2018-02-22T07:36:08.681Z,23.63
2018-02-22T07:37:08.663Z,23.92
2018-02-22T07:38:08.605Z,23.44
2018-02-22T07:39:08.565Z,23.54
2018-02-22T07:40:08.535Z,23.44
2018-02-22T07:41:08.497Z,23.34
2018-02-22T07:42:08.483Z,23.92
2018-02-22T07:43:08.446Z,23.82
2018-02-22T07:44:08.385Z,23.63
2018-02-22T07:45:08.354Z,23.72
2018-02-22T07:46:08.341Z,24.02
2018-02-22T07:47:08.286Z,24.40
2018-02-22T07:48:08.247Z,24.02
2018-02-22T07:49:08.203Z,24.50
2018-02-22T07:50:08.176Z,24.60
2018-02-22T07:51:08.140Z,24.79
2018-02-22T07:52:08.125Z,24.69
2018-02-22T07:53:08.064Z,24.60
2018-02-22T07:54:08.027Z,24.98
2018-02-22T07:55:07.990Z,24.69
2018-02-22T07:56:07.986Z,24.98
2018-02-22T07:57:07.914Z,24.98
2018-02-22T07:58:07.882Z,24.88
2018-02-22T07:59:07.840Z,25.64
2018-02-22T08:00:07.872Z,25.66
2018-02-22T08:01:07.774Z,24.98
2018-02-22T08:02:07.768Z,26.14
2018-02-22T08:03:07.694Z,25.84
2018-02-22T08:04:07.662Z,25.66
2018-02-22T08:05:07.623Z,25.85
2018-02-22T08:06:07.605Z,25.85
2018-02-22T08:07:07.550Z,26.33
2018-02-22T08:08:07.514Z,26.14
2018-02-22T08:09:07.481Z,26.53
2018-02-22T08:10:07.455Z,26.33
2018-02-22T08:11:07.432Z,26.53
2018-02-22T08:12:07.369Z,26.04
2018-02-22T08:13:07.336Z,26.53
2018-02-22T08:14:07.300Z,26.62
2018-02-22T08:15:07.262Z,26.53
2018-02-22T08:16:07.225Z,26.14
2018-02-22T08:17:07.217Z,26.04
2018-02-22T08:18:07.153Z,26.04
2018-02-22T08:19:07.115Z,26.53
2018-02-22T08:20:07.078Z,26.23
2018-02-22T08:21:07.046Z,25.85
2018-02-22T08:22:07.005Z,25.95
2018-02-22T08:23:07.000Z,25.95
2018-02-22T08:24:06.940Z,25.95
2018-02-22T08:25:06.902Z,26.43
2018-02-22T08:26:06.861Z,26.23
2018-02-22T08:27:06.835Z,25.95
2018-02-22T08:28:06.824Z,26.43
2018-02-22T08:29:06.755Z,26.14
2018-02-22T08:30:06.713Z,26.14
2018-02-22T08:31:06.680Z,26.23
2018-02-22T08:32:06.649Z,26.04
2018-02-22T08:33:06.630Z,26.14
2018-02-22T08:34:06.575Z,25.95
2018-02-22T08:35:06.532Z,25.95
2018-02-22T08:36:06.500Z,26.33
2018-02-22T08:37:06.466Z,26.43
2018-02-22T08:38:06.465Z,26.43
2018-02-22T08:39:06.387Z,26.53
2018-02-22T08:40:06.379Z,26.14
2018-02-22T08:41:06.319Z,26.33
2018-02-22T08:42:06.282Z,25.95
2018-02-22T08:43:06.290Z,26.53
2018-02-22T08:44:06.243Z,26.43
2018-02-22T08:45:06.167Z,26.23
2018-02-22T08:46:06.131Z,25.95
2018-02-22T08:47:06.100Z,26.33
2018-02-22T08:48:06.057Z,26.04
2018-02-22T08:49:06.061Z,26.33
2018-02-22T08:50:05.989Z,26.62
2018-02-22T08:51:05.952Z,26.33
2018-02-22T08:52:05.920Z,26.43
2018-02-22T08:53:05.915Z,26.43
2018-02-22T08:54:05.845Z,25.85
2018-02-22T08:55:05.807Z,25.95
2018-02-22T08:56:05.769Z,26.14
2018-02-22T08:57:05.738Z,25.85
2018-02-22T08:58:05.699Z,26.04
2018-02-22T08:59:05.682Z,26.14
2018-02-22T09:00:05.629Z,26.23
2018-02-22T09:01:05.591Z,25.85
2018-02-22T09:02:05.576Z,26.14
2018-02-22T09:03:05.519Z,26.23
2018-02-22T09:04:05.486Z,25.85
2018-02-22T09:05:05.447Z,25.66
2018-02-22T09:06:05.408Z,25.66
2018-02-22T09:07:05.388Z,25.75
2018-02-22T09:08:05.347Z,25.75
2018-02-22T09:09:05.295Z,25.85
2018-02-22T09:10:05.260Z,25.66
2018-02-22T09:11:05.223Z,25.56
2018-02-22T09:12:05.214Z,25.46
2018-02-22T09:13:05.158Z,25.75
2018-02-22T09:14:05.115Z,25.75
2018-02-22T09:15:05.079Z,25.66
2018-02-22T09:16:05.046Z,25.75
2018-02-22T09:17:05.032Z,25.46
2018-02-22T09:18:04.974Z,25.27
2018-02-22T09:19:04.934Z,25.56
2018-02-22T09:20:04.901Z,25.75
2018-02-22T09:21:04.867Z,25.46
2018-02-22T09:22:04.830Z,25.27
2018-02-22T09:23:04.822Z,25.46
2018-02-22T09:24:04.755Z,25.37
2018-02-22T09:25:04.721Z,25.46
2018-02-22T09:26:04.678Z,24.88
2018-02-22T09:27:04.664Z,24.98
2018-02-22T09:28:04.612Z,24.79
2018-02-22T09:29:04.576Z,25.18
2018-02-22T09:30:04.556Z,24.98
2018-02-22T09:31:04.502Z,24.98
2018-02-22T09:32:04.490Z,25.18
2018-02-22T09:33:04.431Z,25.18
2018-02-22T09:34:04.396Z,25.37
2018-02-22T09:35:04.360Z,25.56
2018-02-22T09:36:04.319Z,24.98
2018-02-22T09:37:04.306Z,25.27
2018-02-22T09:38:04.242Z,24.98
2018-02-22T09:39:04.216Z,25.08
2018-02-22T09:40:04.174Z,24.98
2018-02-22T09:41:04.137Z,25.08
2018-02-22T09:42:04.133Z,25.27
2018-02-22T09:43:04.067Z,24.98
2018-02-22T09:44:04.025Z,25.27
2018-02-22T09:45:03.990Z,25.27
2018-02-22T09:46:03.955Z,25.27
2018-02-22T09:47:03.954Z,24.98
2018-02-22T09:48:03.879Z,25.27
2018-02-22T09:49:03.851Z,25.18
2018-02-22T09:50:03.811Z,25.27
2018-02-22T09:51:03.803Z,25.18
2018-02-22T09:52:03.736Z,24.88
2018-02-22T09:53:03.701Z,24.88
2018-02-22T09:54:03.667Z,24.88
2018-02-22T09:55:03.630Z,24.98
2018-02-22T09:56:03.593Z,24.98
2018-02-22T09:57:03.606Z,24.98
2018-02-22T09:58:03.518Z,24.50
2018-02-22T09:59:03.485Z,24.98
2018-02-22T10:00:03.448Z,25.08
2018-02-22T10:01:03.410Z,25.08
2018-02-22T10:02:03.376Z,24.88
2018-02-22T10:03:03.362Z,25.56
2018-02-22T10:04:03.304Z,25.27
2018-02-22T10:05:03.276Z,25.27
2018-02-22T10:06:03.238Z,24.88
2018-02-22T10:07:03.211Z,24.98
2018-02-22T10:08:04.237Z,25.08
2018-02-22T10:09:03.262Z,24.98
2018-02-22T10:10:03.082Z,24.98
2018-02-22T10:11:03.077Z,24.98
2018-02-22T10:12:03.242Z,25.08
2018-02-22T10:13:03.296Z,25.18
2018-02-22T10:14:02.985Z,24.98
2018-02-22T10:15:02.903Z,25.08
2018-02-22T10:16:02.866Z,24.79
2018-02-22T10:17:03.931Z,25.08
2018-02-22T10:18:03.144Z,24.98
2018-02-22T10:19:03.074Z,22.76
2018-02-22T10:20:02.720Z,17.64
2018-02-22T10:21:03.434Z,14.84
2018-02-22T10:22:02.648Z,14.44
2018-02-22T10:23:02.636Z,14.24
2018-02-22T10:24:02.579Z,14.61
2018-02-22T10:25:02.539Z,14.89
2018-02-22T10:26:02.584Z,16.23
2018-02-22T10:27:02.494Z,19.10
2018-02-22T10:28:03.093Z,23.13
2018-02-22T10:29:02.804Z,24.95
2018-02-22T10:30:02.461Z,26.30
2018-02-22T10:31:02.407Z,26.30
2018-02-22T10:32:02.340Z,27.06
2018-02-22T10:33:02.302Z,26.87
2018-02-22T10:34:02.335Z,27.27
2018-02-22T10:35:02.468Z,26.79
2018-02-22T10:36:02.165Z,27.08
2018-02-22T10:37:02.148Z,26.81
2018-02-22T10:38:02.077Z,26.71
2018-02-22T10:39:02.016Z,26.81
2018-02-22T10:40:02.002Z,26.81
2018-02-22T10:41:01.944Z,26.24
2018-02-22T10:42:01.901Z,25.95
2018-02-22T10:43:01.861Z,26.43
2018-02-22T10:44:01.821Z,26.43
2018-02-22T10:45:01.810Z,25.76
2018-02-22T10:46:01.754Z,26.06
2018-02-22T10:47:01.709Z,26.06
2018-02-22T10:48:01.672Z,25.96
2018-02-22T10:49:01.636Z,25.96
2018-02-22T10:50:01.631Z,25.98
2018-02-22T10:51:01.564Z,25.69
2018-02-22T10:52:01.527Z,25.79
2018-02-22T10:53:01.488Z,25.69
2018-02-22T10:54:01.447Z,25.21
2018-02-22T10:55:01.454Z,25.59
2018-02-22T10:56:01.421Z,25.12
2018-02-22T10:57:01.332Z,25.12
2018-02-22T10:58:01.334Z,24.93
2018-02-22T10:59:01.275Z,25.03
2018-02-22T11:00:01.232Z,25.03
2018-02-22T11:01:01.188Z,25.03
2018-02-22T11:02:01.152Z,25.23
2018-02-22T11:03:01.140Z,24.56
2018-02-22T11:04:01.083Z,24.56
2018-02-22T11:05:01.043Z,24.56
2018-02-22T11:06:01.007Z,24.95
2018-02-22T11:07:00.989Z,24.66
2018-02-22T11:08:00.929Z,24.85
2018-02-22T11:09:00.891Z,24.75
2018-02-22T11:10:00.852Z,24.66
2018-02-22T11:11:00.827Z,24.48
2018-02-22T11:12:00.803Z,24.67
2018-02-22T11:13:00.745Z,24.57
2018-02-22T11:14:00.706Z,24.76
2018-02-22T11:15:00.671Z,24.57
2018-02-22T11:16:00.638Z,24.57
2018-02-22T11:17:00.696Z,24.57
2018-02-22T11:18:00.557Z,24.09
2018-02-22T11:19:00.519Z,24.19
2018-02-22T11:20:00.486Z,24.48
2018-02-22T11:21:00.455Z,24.19
2018-02-22T11:22:00.451Z,24.38
2018-02-22T11:23:00.381Z,24.38
2018-02-22T11:24:00.343Z,24.48
2018-02-22T11:25:00.309Z,24.09
2018-02-22T11:26:00.264Z,24.19
2018-02-22T11:27:00.272Z,24.28
2018-02-22T11:28:00.251Z,24.01
2018-02-22T11:29:00.153Z,23.32
2018-02-22T11:30:00.121Z,23.43
2018-02-22T11:31:00.089Z,23.43
2018-02-22T11:32:00.044Z,23.81
2018-02-22T11:33:00.032Z,23.62
2018-02-22T11:33:59.979Z,23.33
2018-02-22T11:34:59.935Z,23.62
2018-02-22T11:35:59.897Z,23.52
2018-02-22T11:36:59.881Z,23.62
2018-02-22T11:37:59.827Z,23.43
2018-02-22T11:38:59.786Z,23.62
2018-02-22T11:39:59.760Z,23.72
2018-02-22T11:40:59.719Z,23.52
2018-02-22T11:41:59.714Z,23.43
2018-02-22T11:42:59.646Z,23.24
2018-02-22T11:43:59.607Z,23.04
2018-02-22T11:44:59.568Z,22.85
2018-02-22T11:45:59.552Z,22.85
2018-02-22T11:46:59.501Z,23.24
2018-02-22T11:47:59.457Z,22.94
2018-02-22T11:48:59.426Z,22.94
2018-02-22T11:49:59.388Z,23.04
2018-02-22T11:50:59.371Z,22.75
2018-02-22T11:51:59.320Z,22.75
2018-02-22T11:52:59.280Z,22.75
2018-02-22T11:53:59.243Z,22.66
2018-02-22T11:54:59.202Z,23.14
2018-02-22T11:55:59.186Z,23.14
2018-02-22T11:56:59.134Z,23.24
2018-02-22T11:57:59.092Z,23.33
2018-02-22T11:58:59.055Z,23.72
2018-02-22T11:59:59.022Z,23.72
2018-02-22T12:00:59.009Z,23.72
2018-02-22T12:01:58.946Z,23.33
2018-02-22T12:02:58.914Z,23.33
2018-02-22T12:03:58.877Z,23.43
2018-02-22T12:04:58.841Z,23.43
2018-02-22T12:05:58.821Z,23.62
2018-02-22T12:06:58.769Z,23.33
2018-02-22T12:07:58.739Z,23.33
2018-02-22T12:08:58.691Z,23.43
2018-02-22T12:09:58.661Z,23.81
2018-02-22T12:10:58.645Z,23.43
2018-02-22T12:11:58.587Z,23.52
2018-02-22T12:12:58.549Z,23.33
2018-02-22T12:13:58.508Z,23.92
2018-02-22T12:14:58.477Z,23.24
2018-02-22T12:15:58.454Z,23.63
2018-02-22T12:16:58.400Z,23.82
2018-02-22T12:17:58.367Z,23.92
2018-02-22T12:18:58.333Z,23.24
2018-02-22T12:19:58.293Z,23.72
2018-02-22T12:20:58.275Z,23.72
2018-02-22T12:21:58.223Z,23.63
2018-02-22T12:22:58.185Z,23.82
2018-02-22T12:23:58.144Z,23.92
2018-02-22T12:24:58.114Z,23.44
2018-02-22T12:25:58.096Z,23.15
2018-02-22T12:26:58.035Z,23.92
2018-02-22T12:27:58.006Z,23.44
2018-02-22T12:28:57.967Z,24.02
2018-02-22T12:29:58.755Z,24.02
2018-02-22T12:30:57.895Z,24.40
2018-02-22T12:31:57.854Z,23.92
2018-02-22T12:32:57.823Z,23.92
2018-02-22T12:33:57.783Z,23.54
2018-02-22T12:34:57.774Z,23.54
2018-02-22T12:35:57.715Z,24.11
2018-02-22T12:36:57.676Z,24.11
2018-02-22T12:37:57.645Z,24.11
2018-02-22T12:38:57.600Z,24.02
2018-02-22T12:39:57.592Z,24.30
2018-02-22T12:40:57.532Z,24.11
2018-02-22T12:41:57.493Z,24.11
2018-02-22T12:42:57.459Z,24.11
2018-02-22T12:43:57.451Z,23.82
2018-02-22T12:44:57.408Z,23.92
2018-02-22T12:45:57.353Z,24.11
2018-02-22T12:46:57.312Z,24.50
2018-02-22T12:47:57.278Z,24.11
2018-02-22T12:48:57.239Z,24.30
2018-02-22T12:49:57.226Z,24.21
2018-02-22T12:50:57.165Z,24.11
2018-02-22T12:51:57.131Z,24.11